sensor_id;sensor_type;location;lat;lon;timestamp;temperature;humidity
13458;DHT22;6801;53.018;11.560;2022-07-09T00:01:26;17.40;62.60
13458;DHT22;6801;53.018;11.560;2022-07-09T00:03:53;17.40;62.80
13458;DHT22;6801;53.018;11.560;2022-07-09T00:06:20;17.40;63.00
13458;DHT22;6801;53.018;11.560;2022-07-09T00:08:47;17.30;63.50
13458;DHT22;6801;53.018;11.560;2022-07-09T00:11:14;17.30;63.20
13458;DHT22;6801;53.018;11.560;2022-07-09T00:13:41;17.30;63.30
13458;DHT22;6801;53.018;11.560;2022-07-09T00:16:09;17.30;63.30
13458;DHT22;6801;53.018;11.560;2022-07-09T00:18:36;17.30;63.40
13458;DHT22;6801;53.018;11.560;2022-07-09T00:21:03;17.30;63.50
13458;DHT22;6801;53.018;11.560;2022-07-09T00:23:30;17.40;63.60
13458;DHT22;6801;53.018;11.560;2022-07-09T00:25:57;17.30;63.60
13458;DHT22;6801;53.018;11.560;2022-07-09T00:28:24;17.30;63.60
13458;DHT22;6801;53.018;11.560;2022-07-09T00:30:51;17.30;63.60
13458;DHT22;6801;53.018;11.560;2022-07-09T00:33:19;17.30;63.60
13458;DHT22;6801;53.018;11.560;2022-07-09T00:35:46;17.30;63.70
13458;DHT22;6801;53.018;11.560;2022-07-09T00:38:13;17.30;63.70
13458;DHT22;6801;53.018;11.560;2022-07-09T00:40:40;17.30;63.90
13458;DHT22;6801;53.018;11.560;2022-07-09T00:43:16;17.30;63.90
13458;DHT22;6801;53.018;11.560;2022-07-09T00:45:43;17.30;63.90
13458;DHT22;6801;53.018;11.560;2022-07-09T00:48:10;17.30;63.90
13458;DHT22;6801;53.018;11.560;2022-07-09T00:50:40;17.30;63.80
13458;DHT22;6801;53.018;11.560;2022-07-09T00:53:07;17.30;63.90
13458;DHT22;6801;53.018;11.560;2022-07-09T00:55:36;17.30;63.90
13458;DHT22;6801;53.018;11.560;2022-07-09T00:58:03;17.30;64.30
13458;DHT22;6801;53.018;11.560;2022-07-09T01:00:30;17.30;64.40
13458;DHT22;6801;53.018;11.560;2022-07-09T01:02:57;17.30;64.50
13458;DHT22;6801;53.018;11.560;2022-07-09T01:05:24;17.20;64.80
13458;DHT22;6801;53.018;11.560;2022-07-09T01:07:52;17.20;64.70
13458;DHT22;6801;53.018;11.560;2022-07-09T01:10:19;17.20;64.50
13458;DHT22;6801;53.018;11.560;2022-07-09T01:12:47;17.20;65.20
13458;DHT22;6801;53.018;11.560;2022-07-09T01:15:13;17.20;64.70
13458;DHT22;6801;53.018;11.560;2022-07-09T01:17:41;17.20;64.90
13458;DHT22;6801;53.018;11.560;2022-07-09T01:20:08;17.20;64.70
13458;DHT22;6801;53.018;11.560;2022-07-09T01:22:37;17.20;64.70
13458;DHT22;6801;53.018;11.560;2022-07-09T01:25:08;17.20;64.80
13458;DHT22;6801;53.018;11.560;2022-07-09T01:27:35;17.20;64.70
13458;DHT22;6801;53.018;11.560;2022-07-09T01:30:03;17.20;64.80
13458;DHT22;6801;53.018;11.560;2022-07-09T01:32:31;17.20;64.70
13458;DHT22;6801;53.018;11.560;2022-07-09T01:34:58;17.20;64.60
13458;DHT22;6801;53.018;11.560;2022-07-09T01:37:25;17.20;64.60
13458;DHT22;6801;53.018;11.560;2022-07-09T01:39:54;17.20;64.60
13458;DHT22;6801;53.018;11.560;2022-07-09T01:42:21;17.20;64.60
13458;DHT22;6801;53.018;11.560;2022-07-09T01:44:48;17.20;64.90
13458;DHT22;6801;53.018;11.560;2022-07-09T01:47:15;17.20;64.70
13458;DHT22;6801;53.018;11.560;2022-07-09T01:49:42;17.20;64.80
13458;DHT22;6801;53.018;11.560;2022-07-09T01:52:09;17.20;64.60
13458;DHT22;6801;53.018;11.560;2022-07-09T01:54:36;17.20;64.50
13458;DHT22;6801;53.018;11.560;2022-07-09T01:57:05;17.20;64.70
13458;DHT22;6801;53.018;11.560;2022-07-09T01:59:32;17.20;65.00
13458;DHT22;6801;53.018;11.560;2022-07-09T02:01:58;17.20;64.80
13458;DHT22;6801;53.018;11.560;2022-07-09T02:04:27;17.10;64.70
13458;DHT22;6801;53.018;11.560;2022-07-09T02:06:54;17.20;64.60
13458;DHT22;6801;53.018;11.560;2022-07-09T02:09:21;17.20;64.70
13458;DHT22;6801;53.018;11.560;2022-07-09T02:11:48;17.10;64.80
13458;DHT22;6801;53.018;11.560;2022-07-09T02:14:17;17.10;64.80
13458;DHT22;6801;53.018;11.560;2022-07-09T02:16:44;17.10;64.90
13458;DHT22;6801;53.018;11.560;2022-07-09T02:19:11;17.10;64.90
13458;DHT22;6801;53.018;11.560;2022-07-09T02:21:38;17.20;65.00
13458;DHT22;6801;53.018;11.560;2022-07-09T02:24:05;17.20;65.10
13458;DHT22;6801;53.018;11.560;2022-07-09T02:26:32;17.20;65.10
13458;DHT22;6801;53.018;11.560;2022-07-09T02:29:00;17.20;65.10
13458;DHT22;6801;53.018;11.560;2022-07-09T02:31:29;17.20;65.10
13458;DHT22;6801;53.018;11.560;2022-07-09T02:33:56;17.10;65.10
13458;DHT22;6801;53.018;11.560;2022-07-09T02:36:23;17.10;65.00
13458;DHT22;6801;53.018;11.560;2022-07-09T02:38:50;17.20;65.10
13458;DHT22;6801;53.018;11.560;2022-07-09T02:41:17;17.20;65.10
13458;DHT22;6801;53.018;11.560;2022-07-09T02:43:44;17.20;64.90
13458;DHT22;6801;53.018;11.560;2022-07-09T02:46:11;17.20;65.00
13458;DHT22;6801;53.018;11.560;2022-07-09T02:48:40;17.10;64.90
13458;DHT22;6801;53.018;11.560;2022-07-09T02:51:06;17.20;65.10
13458;DHT22;6801;53.018;11.560;2022-07-09T02:53:33;17.20;64.90
13458;DHT22;6801;53.018;11.560;2022-07-09T02:56:00;17.20;64.80
13458;DHT22;6801;53.018;11.560;2022-07-09T02:58:27;17.20;65.20
13458;DHT22;6801;53.018;11.560;2022-07-09T03:00:54;17.20;65.20
13458;DHT22;6801;53.018;11.560;2022-07-09T03:03:21;17.10;65.10
13458;DHT22;6801;53.018;11.560;2022-07-09T03:05:51;17.10;65.00
13458;DHT22;6801;53.018;11.560;2022-07-09T03:08:18;17.10;65.00
13458;DHT22;6801;53.018;11.560;2022-07-09T03:10:47;17.10;65.00
13458;DHT22;6801;53.018;11.560;2022-07-09T03:13:15;17.10;65.00
13458;DHT22;6801;53.018;11.560;2022-07-09T03:15:42;17.10;65.10
13458;DHT22;6801;53.018;11.560;2022-07-09T03:18:08;17.10;65.00
13458;DHT22;6801;53.018;11.560;2022-07-09T03:20:36;17.10;64.90
13458;DHT22;6801;53.018;11.560;2022-07-09T03:23:04;17.10;65.40
13458;DHT22;6801;53.018;11.560;2022-07-09T03:25:31;17.10;65.40
13458;DHT22;6801;53.018;11.560;2022-07-09T03:27:59;17.10;65.20
13458;DHT22;6801;53.018;11.560;2022-07-09T03:30:26;17.10;65.30
13458;DHT22;6801;53.018;11.560;2022-07-09T03:32:53;17.10;65.20
13458;DHT22;6801;53.018;11.560;2022-07-09T03:35:20;17.10;65.30
13458;DHT22;6801;53.018;11.560;2022-07-09T03:37:47;17.00;65.60
13458;DHT22;6801;53.018;11.560;2022-07-09T03:40:15;17.10;65.50
13458;DHT22;6801;53.018;11.560;2022-07-09T03:42:42;17.10;65.30
13458;DHT22;6801;53.018;11.560;2022-07-09T03:45:10;17.10;65.20
13458;DHT22;6801;53.018;11.560;2022-07-09T03:47:37;17.00;65.20
13458;DHT22;6801;53.018;11.560;2022-07-09T03:50:05;17.00;65.30
13458;DHT22;6801;53.018;11.560;2022-07-09T03:52:32;17.00;65.30
13458;DHT22;6801;53.018;11.560;2022-07-09T03:54:59;17.00;65.30
13458;DHT22;6801;53.018;11.560;2022-07-09T03:57:27;17.10;65.20
13458;DHT22;6801;53.018;11.560;2022-07-09T03:59:54;17.00;65.10
13458;DHT22;6801;53.018;11.560;2022-07-09T04:02:21;17.10;65.10
13458;DHT22;6801;53.018;11.560;2022-07-09T04:04:48;17.00;65.10
13458;DHT22;6801;53.018;11.560;2022-07-09T04:07:15;17.10;65.20
13458;DHT22;6801;53.018;11.560;2022-07-09T04:09:42;17.00;65.10
13458;DHT22;6801;53.018;11.560;2022-07-09T04:12:09;17.10;65.10
13458;DHT22;6801;53.018;11.560;2022-07-09T04:14:37;17.10;65.00
13458;DHT22;6801;53.018;11.560;2022-07-09T04:17:04;17.00;65.00
13458;DHT22;6801;53.018;11.560;2022-07-09T04:19:32;17.10;65.10
13458;DHT22;6801;53.018;11.560;2022-07-09T04:21:59;17.10;65.20
13458;DHT22;6801;53.018;11.560;2022-07-09T04:24:27;17.10;65.30
13458;DHT22;6801;53.018;11.560;2022-07-09T04:26:54;17.10;65.30
13458;DHT22;6801;53.018;11.560;2022-07-09T04:29:22;17.10;65.30
13458;DHT22;6801;53.018;11.560;2022-07-09T04:31:50;17.10;65.70
13458;DHT22;6801;53.018;11.560;2022-07-09T04:34:17;17.10;65.70
13458;DHT22;6801;53.018;11.560;2022-07-09T04:36:44;17.10;65.70
13458;DHT22;6801;53.018;11.560;2022-07-09T04:39:11;17.10;65.80
13458;DHT22;6801;53.018;11.560;2022-07-09T04:41:38;17.10;65.80
13458;DHT22;6801;53.018;11.560;2022-07-09T04:44:05;17.10;65.80
13458;DHT22;6801;53.018;11.560;2022-07-09T04:46:33;17.10;65.80
13458;DHT22;6801;53.018;11.560;2022-07-09T04:49:01;17.10;65.80
13458;DHT22;6801;53.018;11.560;2022-07-09T04:51:28;17.10;65.90
13458;DHT22;6801;53.018;11.560;2022-07-09T04:53:55;17.10;66.00
13458;DHT22;6801;53.018;11.560;2022-07-09T04:56:22;17.10;66.00
13458;DHT22;6801;53.018;11.560;2022-07-09T04:58:48;17.10;66.20
13458;DHT22;6801;53.018;11.560;2022-07-09T05:01:18;17.10;66.30
13458;DHT22;6801;53.018;11.560;2022-07-09T05:03:45;17.10;66.70
13458;DHT22;6801;53.018;11.560;2022-07-09T05:06:14;17.10;66.60
13458;DHT22;6801;53.018;11.560;2022-07-09T05:08:41;17.10;66.70
13458;DHT22;6801;53.018;11.560;2022-07-09T05:11:08;17.10;67.10
13458;DHT22;6801;53.018;11.560;2022-07-09T05:13:35;17.10;66.70
13458;DHT22;6801;53.018;11.560;2022-07-09T05:16:03;17.10;66.50
13458;DHT22;6801;53.018;11.560;2022-07-09T05:18:30;17.20;66.40
13458;DHT22;6801;53.018;11.560;2022-07-09T05:20:57;17.10;66.20
13458;DHT22;6801;53.018;11.560;2022-07-09T05:23:26;17.20;66.10
13458;DHT22;6801;53.018;11.560;2022-07-09T05:25:53;17.20;66.30
13458;DHT22;6801;53.018;11.560;2022-07-09T05:28:20;17.20;66.40
13458;DHT22;6801;53.018;11.560;2022-07-09T05:30:47;17.20;66.40
13458;DHT22;6801;53.018;11.560;2022-07-09T05:33:14;17.20;66.30
13458;DHT22;6801;53.018;11.560;2022-07-09T05:35:40;17.20;66.40
13458;DHT22;6801;53.018;11.560;2022-07-09T05:38:07;17.20;66.60
13458;DHT22;6801;53.018;11.560;2022-07-09T05:40:36;17.30;66.80
13458;DHT22;6801;53.018;11.560;2022-07-09T05:43:03;17.20;66.90
13458;DHT22;6801;53.018;11.560;2022-07-09T05:45:29;17.20;66.80
13458;DHT22;6801;53.018;11.560;2022-07-09T05:47:56;17.30;66.60
13458;DHT22;6801;53.018;11.560;2022-07-09T05:50:23;17.30;66.60
13458;DHT22;6801;53.018;11.560;2022-07-09T05:52:50;17.30;66.70
13458;DHT22;6801;53.018;11.560;2022-07-09T05:55:17;17.20;66.80
13458;DHT22;6801;53.018;11.560;2022-07-09T05:57:46;17.30;66.70
13458;DHT22;6801;53.018;11.560;2022-07-09T06:00:13;17.30;66.60
13458;DHT22;6801;53.018;11.560;2022-07-09T06:02:40;17.30;66.70
13458;DHT22;6801;53.018;11.560;2022-07-09T06:05:08;17.30;67.00
13458;DHT22;6801;53.018;11.560;2022-07-09T06:07:35;17.30;67.00
13458;DHT22;6801;53.018;11.560;2022-07-09T06:10:02;17.40;67.20
13458;DHT22;6801;53.018;11.560;2022-07-09T06:12:29;17.40;67.20
13458;DHT22;6801;53.018;11.560;2022-07-09T06:14:58;17.40;66.70
13458;DHT22;6801;53.018;11.560;2022-07-09T06:17:25;17.50;66.80
13458;DHT22;6801;53.018;11.560;2022-07-09T06:19:52;17.50;67.00
13458;DHT22;6801;53.018;11.560;2022-07-09T06:22:19;17.50;67.10
13458;DHT22;6801;53.018;11.560;2022-07-09T06:24:47;17.50;67.20
13458;DHT22;6801;53.018;11.560;2022-07-09T06:27:14;17.50;67.20
13458;DHT22;6801;53.018;11.560;2022-07-09T06:29:41;17.50;67.30
13458;DHT22;6801;53.018;11.560;2022-07-09T06:32:09;17.50;67.20
13458;DHT22;6801;53.018;11.560;2022-07-09T06:34:36;17.50;67.50
13458;DHT22;6801;53.018;11.560;2022-07-09T06:37:03;17.60;68.00
13458;DHT22;6801;53.018;11.560;2022-07-09T06:39:30;17.60;67.50
13458;DHT22;6801;53.018;11.560;2022-07-09T06:42:14;17.60;67.70
13458;DHT22;6801;53.018;11.560;2022-07-09T06:44:45;17.70;67.70
13458;DHT22;6801;53.018;11.560;2022-07-09T06:47:13;17.70;67.40
13458;DHT22;6801;53.018;11.560;2022-07-09T06:49:40;17.70;67.20
13458;DHT22;6801;53.018;11.560;2022-07-09T06:52:07;17.80;67.40
13458;DHT22;6801;53.018;11.560;2022-07-09T06:54:34;17.90;67.20
13458;DHT22;6801;53.018;11.560;2022-07-09T06:57:02;18.00;67.60
13458;DHT22;6801;53.018;11.560;2022-07-09T06:59:29;18.00;66.90
13458;DHT22;6801;53.018;11.560;2022-07-09T07:01:56;18.00;67.30
13458;DHT22;6801;53.018;11.560;2022-07-09T07:04:24;18.10;67.30
13458;DHT22;6801;53.018;11.560;2022-07-09T07:06:52;18.10;67.90
13458;DHT22;6801;53.018;11.560;2022-07-09T07:09:19;18.10;67.70
13458;DHT22;6801;53.018;11.560;2022-07-09T07:11:47;18.20;67.90
13458;DHT22;6801;53.018;11.560;2022-07-09T07:14:15;18.20;66.80
13458;DHT22;6801;53.018;11.560;2022-07-09T07:16:42;18.20;67.30
13458;DHT22;6801;53.018;11.560;2022-07-09T07:19:09;18.20;67.00
13458;DHT22;6801;53.018;11.560;2022-07-09T07:21:38;18.30;66.70
13458;DHT22;6801;53.018;11.560;2022-07-09T07:24:06;18.40;67.10
13458;DHT22;6801;53.018;11.560;2022-07-09T07:26:33;18.40;67.30
13458;DHT22;6801;53.018;11.560;2022-07-09T07:29:00;18.50;66.70
13458;DHT22;6801;53.018;11.560;2022-07-09T07:31:27;18.50;66.30
13458;DHT22;6801;53.018;11.560;2022-07-09T07:33:54;18.50;66.00
13458;DHT22;6801;53.018;11.560;2022-07-09T07:36:21;18.60;66.60
13458;DHT22;6801;53.018;11.560;2022-07-09T07:38:50;18.50;66.30
13458;DHT22;6801;53.018;11.560;2022-07-09T07:41:17;18.60;66.70
13458;DHT22;6801;53.018;11.560;2022-07-09T07:43:44;18.60;66.80
13458;DHT22;6801;53.018;11.560;2022-07-09T07:46:11;18.60;66.60
13458;DHT22;6801;53.018;11.560;2022-07-09T07:48:38;18.70;66.20
13458;DHT22;6801;53.018;11.560;2022-07-09T07:51:07;18.70;66.00
13458;DHT22;6801;53.018;11.560;2022-07-09T07:53:34;18.80;66.70
13458;DHT22;6801;53.018;11.560;2022-07-09T07:56:02;18.80;66.30
13458;DHT22;6801;53.018;11.560;2022-07-09T07:58:29;18.80;66.00
13458;DHT22;6801;53.018;11.560;2022-07-09T08:00:56;18.90;66.00
13458;DHT22;6801;53.018;11.560;2022-07-09T08:03:23;18.90;66.30
13458;DHT22;6801;53.018;11.560;2022-07-09T08:05:52;18.90;66.10
13458;DHT22;6801;53.018;11.560;2022-07-09T08:08:19;18.90;66.10
13458;DHT22;6801;53.018;11.560;2022-07-09T08:10:47;18.90;66.20
13458;DHT22;6801;53.018;11.560;2022-07-09T08:13:16;19.00;66.00
13458;DHT22;6801;53.018;11.560;2022-07-09T08:15:43;19.00;66.00
13458;DHT22;6801;53.018;11.560;2022-07-09T08:18:10;19.00;66.00
13458;DHT22;6801;53.018;11.560;2022-07-09T08:20:40;19.00;65.90
13458;DHT22;6801;53.018;11.560;2022-07-09T08:23:07;19.10;65.80
13458;DHT22;6801;53.018;11.560;2022-07-09T08:25:34;19.10;65.60
13458;DHT22;6801;53.018;11.560;2022-07-09T08:28:02;19.10;65.70
13458;DHT22;6801;53.018;11.560;2022-07-09T08:30:30;19.20;65.90
13458;DHT22;6801;53.018;11.560;2022-07-09T08:32:57;19.20;65.90
13458;DHT22;6801;53.018;11.560;2022-07-09T08:35:24;19.20;65.60
13458;DHT22;6801;53.018;11.560;2022-07-09T08:37:52;19.20;65.40
13458;DHT22;6801;53.018;11.560;2022-07-09T08:40:19;19.30;65.50
13458;DHT22;6801;53.018;11.560;2022-07-09T08:42:47;19.20;65.80
13458;DHT22;6801;53.018;11.560;2022-07-09T08:45:17;19.30;65.40
13458;DHT22;6801;53.018;11.560;2022-07-09T08:47:45;19.30;65.60
13458;DHT22;6801;53.018;11.560;2022-07-09T08:50:13;19.40;65.70
13458;DHT22;6801;53.018;11.560;2022-07-09T08:52:41;19.30;65.90
13458;DHT22;6801;53.018;11.560;2022-07-09T08:55:09;19.30;66.00
13458;DHT22;6801;53.018;11.560;2022-07-09T08:57:36;19.40;66.00
13458;DHT22;6801;53.018;11.560;2022-07-09T09:00:05;19.40;65.80
13458;DHT22;6801;53.018;11.560;2022-07-09T09:02:37;19.30;66.20
13458;DHT22;6801;53.018;11.560;2022-07-09T09:05:13;19.40;66.40
13458;DHT22;6801;53.018;11.560;2022-07-09T09:07:40;19.40;66.10
13458;DHT22;6801;53.018;11.560;2022-07-09T09:10:07;19.40;66.60
13458;DHT22;6801;53.018;11.560;2022-07-09T09:12:34;19.40;66.10
13458;DHT22;6801;53.018;11.560;2022-07-09T09:15:05;19.40;65.90
13458;DHT22;6801;53.018;11.560;2022-07-09T09:17:32;19.50;65.80
13458;DHT22;6801;53.018;11.560;2022-07-09T09:20:12;19.50;66.00
13458;DHT22;6801;53.018;11.560;2022-07-09T09:22:44;19.60;65.70
13458;DHT22;6801;53.018;11.560;2022-07-09T09:25:16;19.70;65.50
13458;DHT22;6801;53.018;11.560;2022-07-09T09:27:50;19.70;65.30
13458;DHT22;6801;53.018;11.560;2022-07-09T09:30:17;19.80;65.30
13458;DHT22;6801;53.018;11.560;2022-07-09T09:32:44;19.80;65.40
13458;DHT22;6801;53.018;11.560;2022-07-09T09:35:12;19.90;65.20
13458;DHT22;6801;53.018;11.560;2022-07-09T09:37:43;19.90;65.00
13458;DHT22;6801;53.018;11.560;2022-07-09T09:40:10;20.00;64.90
13458;DHT22;6801;53.018;11.560;2022-07-09T09:42:40;20.00;64.50
13458;DHT22;6801;53.018;11.560;2022-07-09T09:45:08;20.00;64.80
13458;DHT22;6801;53.018;11.560;2022-07-09T09:47:37;20.00;64.70
13458;DHT22;6801;53.018;11.560;2022-07-09T09:50:06;20.00;64.80
13458;DHT22;6801;53.018;11.560;2022-07-09T09:52:41;20.10;64.80
13458;DHT22;6801;53.018;11.560;2022-07-09T09:55:08;20.10;64.80
13458;DHT22;6801;53.018;11.560;2022-07-09T09:57:36;20.20;64.80
13458;DHT22;6801;53.018;11.560;2022-07-09T10:00:04;20.20;65.00
13458;DHT22;6801;53.018;11.560;2022-07-09T10:02:38;20.20;65.00
13458;DHT22;6801;53.018;11.560;2022-07-09T10:05:06;20.30;64.70
13458;DHT22;6801;53.018;11.560;2022-07-09T10:07:33;20.30;64.60
13458;DHT22;6801;53.018;11.560;2022-07-09T10:10:01;20.20;64.90
13458;DHT22;6801;53.018;11.560;2022-07-09T10:12:29;20.30;64.70
13458;DHT22;6801;53.018;11.560;2022-07-09T10:14:57;20.30;64.50
13458;DHT22;6801;53.018;11.560;2022-07-09T10:17:25;20.30;65.10
13458;DHT22;6801;53.018;11.560;2022-07-09T10:19:53;20.40;64.60
13458;DHT22;6801;53.018;11.560;2022-07-09T10:22:20;20.40;64.50
13458;DHT22;6801;53.018;11.560;2022-07-09T10:24:50;20.50;64.30
13458;DHT22;6801;53.018;11.560;2022-07-09T10:27:19;20.50;64.20
13458;DHT22;6801;53.018;11.560;2022-07-09T10:29:54;20.60;63.90
13458;DHT22;6801;53.018;11.560;2022-07-09T10:32:25;20.70;63.70
13458;DHT22;6801;53.018;11.560;2022-07-09T10:34:56;20.70;63.40
13458;DHT22;6801;53.018;11.560;2022-07-09T10:37:41;20.80;63.10
13458;DHT22;6801;53.018;11.560;2022-07-09T10:40:09;20.80;63.20
13458;DHT22;6801;53.018;11.560;2022-07-09T10:42:39;20.80;63.10
13458;DHT22;6801;53.018;11.560;2022-07-09T10:45:37;20.80;63.10
13458;DHT22;6801;53.018;11.560;2022-07-09T10:48:06;20.90;63.30
13458;DHT22;6801;53.018;11.560;2022-07-09T10:50:38;21.00;63.20
13458;DHT22;6801;53.018;11.560;2022-07-09T10:53:06;21.00;63.30
13458;DHT22;6801;53.018;11.560;2022-07-09T10:55:33;21.00;63.30
13458;DHT22;6801;53.018;11.560;2022-07-09T10:58:01;21.10;63.20
13458;DHT22;6801;53.018;11.560;2022-07-09T11:00:33;21.20;62.90
13458;DHT22;6801;53.018;11.560;2022-07-09T11:03:03;21.30;62.50
13458;DHT22;6801;53.018;11.560;2022-07-09T11:05:34;21.40;62.10
13458;DHT22;6801;53.018;11.560;2022-07-09T11:08:09;21.50;61.70
13458;DHT22;6801;53.018;11.560;2022-07-09T11:10:38;21.60;60.30
13458;DHT22;6801;53.018;11.560;2022-07-09T11:13:07;21.50;60.50
13458;DHT22;6801;53.018;11.560;2022-07-09T11:15:36;21.50;60.60
13458;DHT22;6801;53.018;11.560;2022-07-09T11:18:04;21.50;60.40
13458;DHT22;6801;53.018;11.560;2022-07-09T11:20:32;21.30;61.40
13458;DHT22;6801;53.018;11.560;2022-07-09T11:22:59;21.20;62.00
13458;DHT22;6801;53.018;11.560;2022-07-09T11:25:27;21.20;62.70
13458;DHT22;6801;53.018;11.560;2022-07-09T11:27:55;21.20;63.10
13458;DHT22;6801;53.018;11.560;2022-07-09T11:30:24;21.20;63.40
13458;DHT22;6801;53.018;11.560;2022-07-09T11:32:51;21.10;63.80
13458;DHT22;6801;53.018;11.560;2022-07-09T11:35:28;21.10;64.00
13458;DHT22;6801;53.018;11.560;2022-07-09T11:37:57;21.00;64.50
13458;DHT22;6801;53.018;11.560;2022-07-09T11:40:25;21.00;64.70
13458;DHT22;6801;53.018;11.560;2022-07-09T11:42:52;21.00;64.70
13458;DHT22;6801;53.018;11.560;2022-07-09T11:45:25;21.00;64.40
13458;DHT22;6801;53.018;11.560;2022-07-09T11:48:02;21.00;64.50
13458;DHT22;6801;53.018;11.560;2022-07-09T11:50:30;21.10;64.40
13458;DHT22;6801;53.018;11.560;2022-07-09T11:52:57;21.10;64.40
13458;DHT22;6801;53.018;11.560;2022-07-09T11:55:29;21.10;64.80
13458;DHT22;6801;53.018;11.560;2022-07-09T11:57:57;21.10;65.00
13458;DHT22;6801;53.018;11.560;2022-07-09T12:00:27;21.20;64.80
13458;DHT22;6801;53.018;11.560;2022-07-09T12:02:55;21.30;64.90
13458;DHT22;6801;53.018;11.560;2022-07-09T12:05:27;21.30;64.90
13458;DHT22;6801;53.018;11.560;2022-07-09T12:07:57;21.40;65.00
13458;DHT22;6801;53.018;11.560;2022-07-09T12:10:28;21.50;65.10
13458;DHT22;6801;53.018;11.560;2022-07-09T12:12:56;21.60;65.10
13458;DHT22;6801;53.018;11.560;2022-07-09T12:15:23;21.70;65.10
13458;DHT22;6801;53.018;11.560;2022-07-09T12:17:52;21.90;65.30
13458;DHT22;6801;53.018;11.560;2022-07-09T12:20:21;22.00;65.70
13458;DHT22;6801;53.018;11.560;2022-07-09T12:22:48;22.00;63.40
13458;DHT22;6801;53.018;11.560;2022-07-09T12:25:15;21.90;62.70
13458;DHT22;6801;53.018;11.560;2022-07-09T12:27:43;21.90;62.40
13458;DHT22;6801;53.018;11.560;2022-07-09T12:30:10;21.80;62.90
13458;DHT22;6801;53.018;11.560;2022-07-09T12:32:37;21.80;63.20
13458;DHT22;6801;53.018;11.560;2022-07-09T12:35:07;21.80;63.50
13458;DHT22;6801;53.018;11.560;2022-07-09T12:37:35;21.70;63.60
13458;DHT22;6801;53.018;11.560;2022-07-09T12:40:02;21.70;63.70
13458;DHT22;6801;53.018;11.560;2022-07-09T12:42:30;21.70;63.50
13458;DHT22;6801;53.018;11.560;2022-07-09T12:44:57;21.70;63.40
13458;DHT22;6801;53.018;11.560;2022-07-09T12:47:24;21.80;63.10
13458;DHT22;6801;53.018;11.560;2022-07-09T12:49:51;21.80;62.90
13458;DHT22;6801;53.018;11.560;2022-07-09T12:52:19;21.90;63.70
13458;DHT22;6801;53.018;11.560;2022-07-09T12:54:46;21.90;62.80
13458;DHT22;6801;53.018;11.560;2022-07-09T12:57:13;22.00;63.10
13458;DHT22;6801;53.018;11.560;2022-07-09T12:59:40;22.00;62.70
13458;DHT22;6801;53.018;11.560;2022-07-09T13:02:07;22.20;63.40
13458;DHT22;6801;53.018;11.560;2022-07-09T13:04:34;22.20;63.30
13458;DHT22;6801;53.018;11.560;2022-07-09T13:07:02;22.40;62.50
13458;DHT22;6801;53.018;11.560;2022-07-09T13:09:30;22.50;62.00
13458;DHT22;6801;53.018;11.560;2022-07-09T13:11:57;22.50;60.20
13458;DHT22;6801;53.018;11.560;2022-07-09T13:14:24;22.50;60.00
13458;DHT22;6801;53.018;11.560;2022-07-09T13:16:51;22.50;58.30
13458;DHT22;6801;53.018;11.560;2022-07-09T13:19:18;22.50;59.00
13458;DHT22;6801;53.018;11.560;2022-07-09T13:21:45;22.50;58.70
13458;DHT22;6801;53.018;11.560;2022-07-09T13:24:12;22.50;57.90
13458;DHT22;6801;53.018;11.560;2022-07-09T13:26:41;22.50;58.90
13458;DHT22;6801;53.018;11.560;2022-07-09T13:29:08;22.60;59.00
13458;DHT22;6801;53.018;11.560;2022-07-09T13:31:35;22.60;58.70
13458;DHT22;6801;53.018;11.560;2022-07-09T13:34:02;22.60;58.60
13458;DHT22;6801;53.018;11.560;2022-07-09T13:36:29;22.60;58.70
13458;DHT22;6801;53.018;11.560;2022-07-09T13:38:56;22.60;59.00
13458;DHT22;6801;53.018;11.560;2022-07-09T13:41:23;22.50;59.20
13458;DHT22;6801;53.018;11.560;2022-07-09T13:43:51;22.50;59.30
13458;DHT22;6801;53.018;11.560;2022-07-09T13:46:18;22.50;59.80
13458;DHT22;6801;53.018;11.560;2022-07-09T13:48:45;22.40;59.90
13458;DHT22;6801;53.018;11.560;2022-07-09T13:51:12;22.30;60.20
13458;DHT22;6801;53.018;11.560;2022-07-09T13:53:39;22.30;60.10
13458;DHT22;6801;53.018;11.560;2022-07-09T13:56:08;22.30;60.10
13458;DHT22;6801;53.018;11.560;2022-07-09T13:58:35;22.20;60.20
13458;DHT22;6801;53.018;11.560;2022-07-09T14:01:03;22.30;60.40
13458;DHT22;6801;53.018;11.560;2022-07-09T14:03:30;22.20;60.70
13458;DHT22;6801;53.018;11.560;2022-07-09T14:05:57;22.30;60.60
13458;DHT22;6801;53.018;11.560;2022-07-09T14:08:24;22.30;60.80
13458;DHT22;6801;53.018;11.560;2022-07-09T14:10:53;22.30;61.10
13458;DHT22;6801;53.018;11.560;2022-07-09T14:13:24;22.30;61.50
13458;DHT22;6801;53.018;11.560;2022-07-09T14:15:53;22.40;61.30
13458;DHT22;6801;53.018;11.560;2022-07-09T14:18:22;22.50;61.60
13458;DHT22;6801;53.018;11.560;2022-07-09T14:20:49;22.50;61.30
13458;DHT22;6801;53.018;11.560;2022-07-09T14:23:16;22.50;61.20
13458;DHT22;6801;53.018;11.560;2022-07-09T14:25:43;22.50;60.80
13458;DHT22;6801;53.018;11.560;2022-07-09T14:28:10;22.50;60.10
13458;DHT22;6801;53.018;11.560;2022-07-09T14:30:37;22.50;59.40
13458;DHT22;6801;53.018;11.560;2022-07-09T14:33:04;22.50;58.00
13458;DHT22;6801;53.018;11.560;2022-07-09T14:35:32;22.50;58.70
13458;DHT22;6801;53.018;11.560;2022-07-09T14:37:59;22.50;59.30
13458;DHT22;6801;53.018;11.560;2022-07-09T14:40:26;22.50;59.70
13458;DHT22;6801;53.018;11.560;2022-07-09T14:42:54;22.60;59.10
13458;DHT22;6801;53.018;11.560;2022-07-09T14:45:21;22.60;59.90
13458;DHT22;6801;53.018;11.560;2022-07-09T14:47:51;22.70;58.80
13458;DHT22;6801;53.018;11.560;2022-07-09T14:50:18;22.70;59.40
13458;DHT22;6801;53.018;11.560;2022-07-09T14:52:47;22.80;59.80
13458;DHT22;6801;53.018;11.560;2022-07-09T14:55:14;22.90;59.80
13458;DHT22;6801;53.018;11.560;2022-07-09T14:57:41;22.90;59.90
13458;DHT22;6801;53.018;11.560;2022-07-09T15:00:09;23.00;60.00
13458;DHT22;6801;53.018;11.560;2022-07-09T15:02:36;23.00;59.70
13458;DHT22;6801;53.018;11.560;2022-07-09T15:05:04;23.00;59.90
13458;DHT22;6801;53.018;11.560;2022-07-09T15:07:31;23.10;60.00
13458;DHT22;6801;53.018;11.560;2022-07-09T15:10:00;23.20;58.00
13458;DHT22;6801;53.018;11.560;2022-07-09T15:12:26;23.30;57.70
13458;DHT22;6801;53.018;11.560;2022-07-09T15:14:53;23.30;55.20
13458;DHT22;6801;53.018;11.560;2022-07-09T15:17:20;23.40;56.50
13458;DHT22;6801;53.018;11.560;2022-07-09T15:19:47;23.40;55.70
13458;DHT22;6801;53.018;11.560;2022-07-09T15:22:14;23.40;52.10
13458;DHT22;6801;53.018;11.560;2022-07-09T15:24:42;23.40;53.30
13458;DHT22;6801;53.018;11.560;2022-07-09T15:27:10;23.40;51.20
13458;DHT22;6801;53.018;11.560;2022-07-09T15:29:37;23.50;51.10
13458;DHT22;6801;53.018;11.560;2022-07-09T15:32:04;23.50;51.80
13458;DHT22;6801;53.018;11.560;2022-07-09T15:34:31;23.50;53.20